createdAt,value
2019-05-16T00:02:18.405Z,80.30
2019-05-16T00:04:44.815Z,79.80
2019-05-16T00:07:13.492Z,79.30
2019-05-16T00:09:40.072Z,81.80
2019-05-16T00:12:08.682Z,80.80
2019-05-16T00:14:38.594Z,80.30
2019-05-16T00:17:05.338Z,78.70
2019-05-16T00:19:31.948Z,80.40
2019-05-16T00:22:01.327Z,80.70
2019-05-16T00:24:29.154Z,78.40
2019-05-16T00:26:57.919Z,79.90
2019-05-16T00:29:27.710Z,78.40
2019-05-16T00:31:54.429Z,78.90
2019-05-16T00:34:21.006Z,77.80
2019-05-16T00:36:49.637Z,77.20
2019-05-16T00:39:18.406Z,79.50
2019-05-16T00:41:44.563Z,77.60
2019-05-16T00:44:12.590Z,77.90
2019-05-16T00:46:39.207Z,77.10
2019-05-16T00:49:08.119Z,78.40
2019-05-16T00:51:37.688Z,78.20
2019-05-16T00:54:04.677Z,77.20
2019-05-16T00:56:31.267Z,77.70
2019-05-16T00:59:00.815Z,78.80
2019-05-16T01:01:28.292Z,78.70
2019-05-16T01:03:55.123Z,77.30
2019-05-16T01:06:23.655Z,77.30
2019-05-16T01:08:50.310Z,78.60
2019-05-16T01:11:18.454Z,78.10
2019-05-16T01:13:48.781Z,76.40
2019-05-16T01:16:15.466Z,78.70
2019-05-16T01:18:42.053Z,77.00
2019-05-16T01:21:12.236Z,75.60
2019-05-16T01:23:38.984Z,77.20
2019-05-16T01:26:07.814Z,78.40
2019-05-16T01:28:37.635Z,78.30
2019-05-16T01:31:03.936Z,79.00
2019-05-16T01:33:30.527Z,79.00
2019-05-16T01:35:59.645Z,79.10
2019-05-16T01:38:28.337Z,77.10
2019-05-16T01:40:54.531Z,76.90
2019-05-16T01:43:28.408Z,77.30
2019-05-16T01:45:55.114Z,78.50
2019-05-16T01:48:21.676Z,79.80
2019-05-16T01:50:52.374Z,79.10
2019-05-16T01:53:19.209Z,81.60
2019-05-16T01:55:45.922Z,80.60
2019-05-16T01:58:15.522Z,79.40
2019-05-16T02:00:52.584Z,78.80
2019-05-16T02:03:10.507Z,78.90
2019-05-16T02:05:40.346Z,77.60
2019-05-16T02:08:08.894Z,79.90
2019-05-16T02:10:37.728Z,79.80
2019-05-16T02:13:05.876Z,79.30
2019-05-16T02:15:32.756Z,79.40
2019-05-16T02:17:59.632Z,76.90
2019-05-16T02:20:29.174Z,78.00
2019-05-16T02:22:55.760Z,76.40
2019-05-16T02:25:22.473Z,76.50
2019-05-16T02:27:50.999Z,79.40
2019-05-16T02:30:21.336Z,79.70
2019-05-16T02:32:45.903Z,78.40
2019-05-16T02:35:14.919Z,77.80
2019-05-16T02:37:42.477Z,80.10
2019-05-16T02:40:12.056Z,81.20
2019-05-16T02:42:41.960Z,79.10
2019-05-16T02:45:10.643Z,80.30
2019-05-16T02:47:37.557Z,80.40
2019-05-16T02:50:06.359Z,81.90
2019-05-16T02:52:32.928Z,79.40
2019-05-16T02:55:00.920Z,81.10
2019-05-16T02:57:31.564Z,78.70
2019-05-16T03:00:01.770Z,78.20
2019-05-16T03:02:27.052Z,80.70
2019-05-16T03:04:56.168Z,78.80
2019-05-16T03:07:36.485Z,79.70
2019-05-16T03:09:51.485Z,80.40
2019-05-16T03:12:21.190Z,79.00
2019-05-16T03:14:50.361Z,79.50
2019-05-16T03:17:16.172Z,77.50
2019-05-16T03:19:44.893Z,77.40
2019-05-16T03:22:11.838Z,77.00
2019-05-16T03:24:41.753Z,77.00
2019-05-16T03:27:10.978Z,78.90
2019-05-16T03:29:37.647Z,78.50
2019-05-16T03:32:04.523Z,76.50
2019-05-16T03:34:34.729Z,77.90
2019-05-16T03:37:03.998Z,79.50
2019-05-16T03:39:31.423Z,78.70
2019-05-16T03:42:01.075Z,78.80
2019-05-16T03:44:31.462Z,78.50
2019-05-16T03:46:56.143Z,78.00
2019-05-16T03:49:25.096Z,77.70
2019-05-16T03:51:51.735Z,77.00
2019-05-16T03:54:21.102Z,75.40
2019-05-16T03:56:51.398Z,76.60
2019-05-16T03:59:17.208Z,77.40
2019-05-16T04:01:43.788Z,78.30
2019-05-16T04:04:13.890Z,77.40
2019-05-16T04:06:41.598Z,75.60
2019-05-16T04:09:11.879Z,77.30
2019-05-16T04:11:42.121Z,77.90
2019-05-16T04:14:10.626Z,76.10
2019-05-16T04:16:37.334Z,76.00
2019-05-16T04:19:06.191Z,75.90
2019-05-16T04:21:33.076Z,76.00
2019-05-16T04:24:01.207Z,78.30
2019-05-16T04:26:31.433Z,79.70
2019-05-16T04:29:00.767Z,80.50
2019-05-16T04:31:30.540Z,79.20
2019-05-16T04:33:57.412Z,78.30
2019-05-16T04:36:24.000Z,79.00
2019-05-16T04:38:51.346Z,80.40
2019-05-16T04:41:21.148Z,77.70
2019-05-16T04:43:50.585Z,77.60
2019-05-16T04:48:50.811Z,78.50
2019-05-16T04:51:17.196Z,81.70
2019-05-16T04:53:43.788Z,79.10
2019-05-16T04:56:12.184Z,78.50
2019-05-16T04:58:40.859Z,74.40
2019-05-16T05:01:07.364Z,77.20
2019-05-16T05:03:36.502Z,76.70
2019-05-16T05:06:03.369Z,75.60
2019-05-16T05:08:57.065Z,77.90
2019-05-16T05:11:21.242Z,75.90
2019-05-16T05:13:46.376Z,77.90
2019-05-16T05:16:13.125Z,76.50
2019-05-16T05:18:42.177Z,76.90
2019-05-16T05:21:11.417Z,77.20
2019-05-16T05:23:37.672Z,77.00
2019-05-16T05:26:06.264Z,76.50
2019-05-16T05:28:32.856Z,75.40
2019-05-16T05:30:59.870Z,74.30
2019-05-16T05:33:30.456Z,73.90
2019-05-16T05:35:57.101Z,73.80
2019-05-16T05:38:23.976Z,72.70
2019-05-16T05:40:53.277Z,71.80
2019-05-16T05:43:21.476Z,73.50
2019-05-16T05:45:50.917Z,70.90
2019-05-16T05:48:21.483Z,72.70
2019-05-16T05:50:47.435Z,73.10
2019-05-16T05:53:14.191Z,74.60
2019-05-16T05:55:42.934Z,75.00
2019-05-16T05:58:10.153Z,76.00
2019-05-16T06:00:36.711Z,76.90
2019-05-16T06:03:06.001Z,76.00
2019-05-16T06:05:32.859Z,74.50
2019-05-16T06:08:00.278Z,75.80
2019-05-16T06:10:30.475Z,74.90
2019-05-16T06:12:57.354Z,75.30
2019-05-16T06:15:23.932Z,75.40
2019-05-16T06:18:00.061Z,75.00
2019-05-16T06:20:25.656Z,75.50
2019-05-16T06:22:52.260Z,77.80
2019-05-16T06:25:23.194Z,78.90
2019-05-16T06:27:51.191Z,78.80
2019-05-16T06:30:20.615Z,79.50
2019-05-16T06:32:50.182Z,77.20
2019-05-16T06:35:16.884Z,77.70
2019-05-16T06:37:43.481Z,79.00
2019-05-16T06:40:12.913Z,76.30
2019-05-16T06:42:40.248Z,77.00
2019-05-16T06:45:10.117Z,73.50
2019-05-16T06:47:41.309Z,75.70
2019-05-16T06:50:11.445Z,78.30
2019-05-16T06:52:36.319Z,76.30
2019-05-16T06:55:09.862Z,76.20
2019-05-16T06:57:36.367Z,76.40
2019-05-16T07:00:03.262Z,77.90
2019-05-16T07:02:36.068Z,80.50
2019-05-16T07:05:02.952Z,78.60
2019-05-16T07:07:30.762Z,80.60
2019-05-16T07:10:04.692Z,79.00
2019-05-16T07:12:33.784Z,79.70
2019-05-16T07:15:01.236Z,80.00
2019-05-16T07:17:31.526Z,81.40
2019-05-16T07:20:05.112Z,81.10
2019-05-16T07:22:31.200Z,82.30
2019-05-16T07:25:00.074Z,82.20
2019-05-16T07:27:26.744Z,80.50
2019-05-16T07:29:53.495Z,79.90
2019-05-16T07:32:22.487Z,79.60
2019-05-16T07:34:50.992Z,79.20
2019-05-16T07:37:19.884Z,79.20
2019-05-16T07:39:51.102Z,81.20
2019-05-16T07:42:16.998Z,79.20
2019-05-16T07:44:45.956Z,79.00
2019-05-16T07:47:20.298Z,78.50
2019-05-16T07:49:47.338Z,76.20
2019-05-16T07:52:20.623Z,80.50
2019-05-16T07:54:50.707Z,75.60
2019-05-16T07:57:37.249Z,77.10
2019-05-16T08:00:07.069Z,73.40
2019-05-16T08:02:40.229Z,76.50
2019-05-16T08:05:10.328Z,75.30
2019-05-16T08:07:40.753Z,75.00
2019-05-16T08:10:07.722Z,72.70
2019-05-16T08:12:40.599Z,73.70
2019-05-16T08:17:44.260Z,72.10
2019-05-16T08:20:10.795Z,74.80
2019-05-16T08:22:43.315Z,75.20
2019-05-16T08:25:15.692Z,74.70
2019-05-16T08:27:52.016Z,74.60
2019-05-16T08:30:21.056Z,73.10
2019-05-16T08:32:52.842Z,72.20
2019-05-16T08:35:21.092Z,72.80
2019-05-16T08:37:47.258Z,74.70
2019-05-16T08:40:21.303Z,75.30
2019-05-16T08:42:45.624Z,73.60
2019-05-16T08:45:13.154Z,73.80
2019-05-16T08:47:46.447Z,73.50
2019-05-16T08:50:21.740Z,73.90
2019-05-16T08:52:52.912Z,71.00
2019-05-16T08:55:21.916Z,67.90
2019-05-16T08:57:52.815Z,71.30
2019-05-16T09:00:21.777Z,73.20
2019-05-16T09:02:53.263Z,70.50
2019-05-16T09:05:22.673Z,68.40
2019-05-16T09:07:49.087Z,71.00
2019-05-16T09:10:49.809Z,69.60
2019-05-16T09:12:49.431Z,69.10
2019-05-16T09:15:17.063Z,71.50
2019-05-16T09:17:47.455Z,71.70
2019-05-16T09:20:17.408Z,70.50
2019-05-16T09:22:44.635Z,67.90
2019-05-16T09:25:13.451Z,68.40
2019-05-16T09:27:40.060Z,70.20
2019-05-16T09:30:07.936Z,68.70
2019-05-16T09:32:42.381Z,69.10
2019-05-16T09:35:08.169Z,68.80
2019-05-16T09:37:37.348Z,65.60
2019-05-16T09:40:06.487Z,65.80
2019-05-16T09:42:33.216Z,65.60
2019-05-16T09:45:02.161Z,68.70
2019-05-16T09:47:31.671Z,67.00
2019-05-16T09:49:59.330Z,68.90
2019-05-16T09:52:27.395Z,68.60
2019-05-16T09:57:32.538Z,69.40
2019-05-16T10:00:06.629Z,68.40
2019-05-16T10:05:26.624Z,66.90
2019-05-16T10:07:58.180Z,67.10
2019-05-16T10:10:26.277Z,69.50
2019-05-16T10:12:54.269Z,65.90
2019-05-16T10:15:26.963Z,67.80
2019-05-16T10:17:53.511Z,68.70
2019-05-16T10:20:20.415Z,66.60
2019-05-16T10:22:50.862Z,67.10
2019-05-16T10:25:19.535Z,66.30
2019-05-16T10:27:47.568Z,65.70
2019-05-16T10:30:17.560Z,65.20
2019-05-16T10:32:47.208Z,67.60
2019-05-16T10:35:13.251Z,65.30
2019-05-16T10:37:42.389Z,66.10
2019-05-16T10:40:09.117Z,67.20
2019-05-16T10:42:38.037Z,63.30
2019-05-16T10:45:08.710Z,62.60
2019-05-16T10:47:37.494Z,63.20
2019-05-16T10:50:08.459Z,63.80
2019-05-16T10:52:37.419Z,65.50
2019-05-16T10:55:04.178Z,65.90
2019-05-16T10:57:31.136Z,65.30
2019-05-16T11:00:08.858Z,63.50
2019-05-16T11:02:28.609Z,64.50
2019-05-16T11:05:02.837Z,65.20
2019-05-16T11:07:29.425Z,68.10
2019-05-16T11:10:01.376Z,67.90
2019-05-16T11:12:22.916Z,66.60
2019-05-16T11:14:54.543Z,66.60
2019-05-16T11:17:27.662Z,65.50
2019-05-16T11:19:55.550Z,67.10
2019-05-16T11:22:29.986Z,66.10
2019-05-16T11:24:59.870Z,63.10
2019-05-16T11:27:26.506Z,64.50
2019-05-16T11:29:56.624Z,66.70
2019-05-16T11:32:23.575Z,63.80
2019-05-16T11:34:50.306Z,67.20
2019-05-16T11:37:19.752Z,65.90
2019-05-16T11:39:46.641Z,67.40
2019-05-16T11:42:13.281Z,66.40
2019-05-16T11:44:42.204Z,65.60
2019-05-16T11:47:09.261Z,64.10
2019-05-16T11:49:36.918Z,66.20
2019-05-16T11:52:07.448Z,65.70
2019-05-16T11:54:34.225Z,64.80
2019-05-16T11:57:01.433Z,65.50
2019-05-16T12:02:04.370Z,65.70
2019-05-16T12:04:34.360Z,62.60
2019-05-16T12:07:01.157Z,65.40
2019-05-16T12:12:21.894Z,68.40
2019-05-16T12:14:51.024Z,67.80
2019-05-16T12:17:18.196Z,69.50
2019-05-16T12:19:48.259Z,70.10
2019-05-16T12:22:18.295Z,71.50
2019-05-16T12:24:44.409Z,71.60
2019-05-16T12:27:11.305Z,72.60
2019-05-16T12:29:40.107Z,73.30
2019-05-16T12:32:07.855Z,73.10
2019-05-16T12:34:36.873Z,73.80
2019-05-16T12:37:08.270Z,74.50
2019-05-16T12:39:37.770Z,74.40
2019-05-16T12:42:03.511Z,74.30
2019-05-16T12:44:32.333Z,74.30
2019-05-16T12:46:59.097Z,75.80
2019-05-16T12:49:25.715Z,74.40
2019-05-16T12:51:57.034Z,74.60
2019-05-16T12:54:23.967Z,74.40
2019-05-16T12:56:52.731Z,74.40
2019-05-16T12:59:21.856Z,76.10
2019-05-16T13:01:48.549Z,76.10
2019-05-16T13:04:18.897Z,76.70
2019-05-16T13:06:47.110Z,77.30
2019-05-16T13:09:13.781Z,76.70
2019-05-16T13:11:40.724Z,76.20
2019-05-16T13:14:11.301Z,77.80
2019-05-16T13:16:37.744Z,77.30
2019-05-16T13:19:06.843Z,77.00
2019-05-16T13:29:11.070Z,78.50
2019-05-16T13:31:37.963Z,77.90
2019-05-16T13:34:07.435Z,77.60
2019-05-16T13:36:34.291Z,77.80
2019-05-16T13:39:02.573Z,77.00
2019-05-16T13:41:34.357Z,77.20
2019-05-16T13:44:13.912Z,77.20
2019-05-16T13:46:28.582Z,76.30
2019-05-16T13:48:57.268Z,76.80
2019-05-16T13:51:24.118Z,76.50
2019-05-16T13:53:50.736Z,77.00
2019-05-16T13:56:20.235Z,77.70
2019-05-16T13:58:47.158Z,78.40
2019-05-16T14:01:13.909Z,79.30
2019-05-16T14:03:43.190Z,79.30
2019-05-16T14:06:09.904Z,79.00
2019-05-16T14:08:39.496Z,79.10
2019-05-16T14:11:10.988Z,80.10
2019-05-16T14:13:37.847Z,80.80
2019-05-16T14:16:07.101Z,83.10
2019-05-16T14:18:38.039Z,84.10
2019-05-16T14:21:06.885Z,84.80
2019-05-16T14:23:33.580Z,85.80
2019-05-16T14:28:37.184Z,88.20
2019-05-16T14:31:07.221Z,87.40
2019-05-16T14:33:36.710Z,86.80
2019-05-16T14:36:07.489Z,86.10
2019-05-16T14:38:37.735Z,85.60
2019-05-16T14:41:04.639Z,85.00
2019-05-16T14:43:36.934Z,84.20
2019-05-16T14:46:07.044Z,86.00
2019-05-16T14:48:32.455Z,85.10
2019-05-16T14:51:02.528Z,86.00
2019-05-16T14:53:32.328Z,85.90
2019-05-16T14:56:02.532Z,85.70
2019-05-16T14:58:57.839Z,86.40
2019-05-16T15:01:31.627Z,87.60
2019-05-16T15:04:02.704Z,88.20
2019-05-16T15:06:29.766Z,90.00
2019-05-16T15:08:58.205Z,89.80
2019-05-16T15:11:28.486Z,90.10
2019-05-16T15:13:58.209Z,89.80
2019-05-16T15:16:27.296Z,90.00
2019-05-16T15:18:59.748Z,90.00
2019-05-16T15:21:28.355Z,89.10
2019-05-16T15:24:00.944Z,90.10
2019-05-16T15:26:31.379Z,89.80
2019-05-16T15:28:59.201Z,89.10
2019-05-16T15:31:36.295Z,90.20
2019-05-16T15:36:37.504Z,89.50
2019-05-16T15:39:07.839Z,89.70
2019-05-16T15:41:39.657Z,90.30
2019-05-16T15:49:19.561Z,88.70
2019-05-16T15:51:47.301Z,88.90
2019-05-16T15:54:20.390Z,88.80
2019-05-16T15:56:50.377Z,89.80
2019-05-16T15:59:18.128Z,90.10
2019-05-16T16:01:47.427Z,90.20
2019-05-16T16:04:18.367Z,90.00
2019-05-16T16:06:49.090Z,89.70
2019-05-16T16:09:17.458Z,90.00
2019-05-16T16:11:48.675Z,90.20
2019-05-16T16:14:17.174Z,89.20
2019-05-16T16:16:46.345Z,89.00
2019-05-16T16:19:17.453Z,89.30
2019-05-16T16:21:47.326Z,89.50
2019-05-16T16:24:18.908Z,89.60
2019-05-16T16:34:28.542Z,90.10
2019-05-16T16:36:56.933Z,90.10
2019-05-16T16:39:31.076Z,89.90
2019-05-16T16:42:01.516Z,89.10
2019-05-16T16:44:37.485Z,87.80
2019-05-16T16:47:06.711Z,87.50
2019-05-16T16:54:44.607Z,89.00
2019-05-16T16:57:11.724Z,88.80
2019-05-16T16:59:38.833Z,88.50
2019-05-16T17:02:10.520Z,86.90
2019-05-16T17:04:38.706Z,86.90
2019-05-16T17:07:07.173Z,87.30
2019-05-16T17:12:10.640Z,86.00
2019-05-16T17:14:39.983Z,85.90
2019-05-16T17:17:07.126Z,86.30
2019-05-16T17:22:17.001Z,85.90
2019-05-16T17:24:40.548Z,86.80
2019-05-16T17:27:09.793Z,86.40
2019-05-16T17:29:38.809Z,86.00
2019-05-16T17:32:09.919Z,84.80
2019-05-16T17:34:34.667Z,85.80
2019-05-16T17:37:08.990Z,84.50
2019-05-16T17:39:34.208Z,85.10
2019-05-16T17:42:03.712Z,84.10
2019-05-16T17:44:32.323Z,85.60
2019-05-16T17:46:59.266Z,85.90
2019-05-16T17:49:29.866Z,85.90
2019-05-16T17:51:59.147Z,85.70
2019-05-16T17:54:26.757Z,86.20
2019-05-16T17:56:53.932Z,86.60
2019-05-16T18:01:57.528Z,86.20
2019-05-16T18:04:26.538Z,86.60
2019-05-16T18:06:52.654Z,87.40
2019-05-16T18:09:21.303Z,87.20
2019-05-16T18:11:47.972Z,87.30
2019-05-16T18:14:16.955Z,87.80
2019-05-16T18:16:53.727Z,88.70
2019-05-16T18:19:19.689Z,87.70
2019-05-16T18:21:46.462Z,87.50
2019-05-16T18:24:16.711Z,87.50
2019-05-16T18:26:43.716Z,86.20
2019-05-16T18:29:10.318Z,86.90
2019-05-16T18:31:38.983Z,86.80
2019-05-16T18:34:07.354Z,86.80
2019-05-16T18:36:34.199Z,86.40
2019-05-16T18:39:03.822Z,86.90
2019-05-16T18:41:30.511Z,86.50
2019-05-16T18:43:57.140Z,86.30
2019-05-16T18:46:26.906Z,85.60
2019-05-16T18:51:29.274Z,86.30
2019-05-16T18:54:00.658Z,86.10
2019-05-16T18:56:27.352Z,86.00
2019-05-16T18:58:53.959Z,86.10
2019-05-16T19:01:23.671Z,87.20
2019-05-16T19:03:50.276Z,87.00
2019-05-16T19:06:17.088Z,87.10
2019-05-16T19:08:45.945Z,86.90
2019-05-16T19:11:12.535Z,87.40
2019-05-16T19:13:39.227Z,86.50
2019-05-16T19:16:08.196Z,87.30
2019-05-16T19:18:36.789Z,87.50
2019-05-16T19:21:03.135Z,87.00
2019-05-16T19:23:33.836Z,87.40
2019-05-16T19:26:00.678Z,87.30
2019-05-16T19:28:28.696Z,87.20
2019-05-16T19:30:57.484Z,87.30
2019-05-16T19:33:24.386Z,87.50
2019-05-16T19:35:51.059Z,88.30
2019-05-16T19:38:20.677Z,88.40
2019-05-16T19:40:47.314Z,88.40
2019-05-16T19:43:13.923Z,88.90
2019-05-16T19:45:43.277Z,89.20
2019-05-16T19:48:10.121Z,89.50
2019-05-16T19:50:37.393Z,89.60
2019-05-16T19:53:07.722Z,90.00
2019-05-16T19:55:36.595Z,90.20
2019-05-16T19:58:03.135Z,90.30
2019-05-16T20:00:31.556Z,89.60
2019-05-16T20:02:58.188Z,89.30
2019-05-16T20:05:26.691Z,89.70
2019-05-16T20:07:58.361Z,89.50
2019-05-16T20:10:26.975Z,89.40
2019-05-16T20:12:53.285Z,89.40
2019-05-16T20:15:22.600Z,89.20
2019-05-16T20:17:56.112Z,90.00
2019-05-16T20:20:18.651Z,89.90
2019-05-16T20:22:47.277Z,89.70
2019-05-16T20:25:16.365Z,90.00
2019-05-16T20:27:43.298Z,89.70
2019-05-16T20:30:13.154Z,90.00
2019-05-16T20:32:39.764Z,90.10
2019-05-16T20:35:08.785Z,90.00
2019-05-16T20:37:36.872Z,90.40
2019-05-16T20:40:03.512Z,89.70
2019-05-16T20:42:30.397Z,89.30
2019-05-16T20:44:59.722Z,89.20
2019-05-16T20:47:27.189Z,89.70
2019-05-16T20:49:53.970Z,89.90
2019-05-16T20:52:26.753Z,90.40
2019-05-16T20:54:52.980Z,91.00
2019-05-16T20:57:19.619Z,90.70
2019-05-16T20:59:49.191Z,90.70
2019-05-16T21:02:16.414Z,90.80
2019-05-16T21:04:43.213Z,90.90
2019-05-16T21:07:12.203Z,90.70
2019-05-16T21:09:38.841Z,90.70
2019-05-16T21:12:08.044Z,90.30
2019-05-16T21:14:35.926Z,90.70
2019-05-16T21:17:02.507Z,90.40
2019-05-16T21:19:29.116Z,90.70
2019-05-16T21:24:31.046Z,91.30
2019-05-16T21:26:57.912Z,91.60
2019-05-16T21:29:27.513Z,92.00
2019-05-16T21:31:56.605Z,92.40
2019-05-16T21:34:23.234Z,92.30
2019-05-16T21:36:50.123Z,92.30
2019-05-16T21:39:20.698Z,92.40
2019-05-16T21:41:47.578Z,92.40
2019-05-16T21:44:14.178Z,92.20
2019-05-16T21:46:46.902Z,92.10
2019-05-16T21:49:13.718Z,92.50
2019-05-16T21:51:40.328Z,92.50
2019-05-16T21:54:09.368Z,92.60
2019-05-16T21:56:37.265Z,93.10
2019-05-16T21:59:04.231Z,93.00
2019-05-16T22:01:37.330Z,92.50
2019-05-16T22:04:04.271Z,92.60
2019-05-16T22:06:31.100Z,92.80
2019-05-16T22:08:59.612Z,92.90
2019-05-16T22:11:26.434Z,92.60
2019-05-16T22:13:53.035Z,92.50
2019-05-16T22:16:22.632Z,92.60
2019-05-16T22:18:49.235Z,92.90
2019-05-16T22:21:16.698Z,92.80
2019-05-16T22:23:46.470Z,92.70
2019-05-16T22:26:13.254Z,92.50
2019-05-16T22:28:39.861Z,92.50
2019-05-16T22:31:08.695Z,92.40
2019-05-16T22:33:37.281Z,92.70
2019-05-16T22:36:03.612Z,92.90
2019-05-16T22:38:31.969Z,92.70
2019-05-16T22:40:58.576Z,92.70
2019-05-16T22:43:26.615Z,93.10
2019-05-16T22:45:57.408Z,93.40
2019-05-16T22:48:26.669Z,93.40
2019-05-16T22:50:53.554Z,93.30
2019-05-16T22:55:56.550Z,94.40
2019-05-16T22:58:22.723Z,94.00
2019-05-16T23:00:49.599Z,93.90
2019-05-16T23:03:18.400Z,93.90
2019-05-16T23:05:47.236Z,93.60
2019-05-16T23:08:13.334Z,93.70
2019-05-16T23:13:17.006Z,93.70
2019-05-16T23:15:43.751Z,93.90
2019-05-16T23:18:10.360Z,93.60
2019-05-16T23:20:38.938Z,93.90
2019-05-16T23:23:07.135Z,94.20
2019-05-16T23:25:34.333Z,94.10
2019-05-16T23:28:02.973Z,94.10
2019-05-16T23:30:29.591Z,94.30
2019-05-16T23:32:56.385Z,94.40
2019-05-16T23:35:26.904Z,95.00
2019-05-16T23:37:53.547Z,94.70
2019-05-16T23:40:20.181Z,94.60
2019-05-16T23:42:48.642Z,94.50
2019-05-16T23:45:17.106Z,94.50
2019-05-16T23:47:43.610Z,94.60
2019-05-16T23:50:12.553Z,94.40
2019-05-16T23:52:39.159Z,94.60
2019-05-16T23:55:08.176Z,94.60
2019-05-16T23:57:37.760Z,94.60
